Terminal Aerodrome Forecast
Issued by NWS

Home | Current Version | Previous Version | Text Only | Print | Product List | Glossary On
Versions: 1 2 3 4 5 6 7 8 9 10 11 12 13 14 15 16 17 18 19 20 21 22 23 24 25 26 27 28
000
FTAK31 PAJN 212340
TAFAWG
TAF
PAWG 212340Z 2200/2224 08010KT P6SM FEW010 BKN035 OVC050
      WS020/14035KT
     FM220400 12018G26KT 6SM -RA BR FEW008 BKN025 OVC040
      WS020/14035KT
     FM220800 12018G28KT 4SM -RA BR BKN015 OVC025 WS020/14035KT
      AMD LTD TO CLD VIS AND WIND 2206/2215=

USA.gov is the U.S. government's official web portal to all federal, state and local government web resources and services.